createdAt,value
2018-11-10T00:01:50.567Z,99931.55
2018-11-10T00:04:00.407Z,99940.42
2018-11-10T00:06:10.473Z,99945.33
2018-11-10T00:08:23.610Z,99943.66
2018-11-10T00:10:45.840Z,99941.03
2018-11-10T00:13:14.408Z,99936.61
2018-11-10T00:15:22.028Z,99934.08
2018-11-10T00:17:53.661Z,99937.16
2018-11-10T00:20:03.560Z,99942.01
2018-11-10T00:22:20.280Z,99944.84
2018-11-10T00:24:38.364Z,99938.90
2018-11-10T00:26:57.868Z,99940.78
2018-11-10T00:29:50.430Z,99944.41
2018-11-10T00:32:00.350Z,99940.54
2018-11-10T00:34:28.751Z,99943.67
2018-11-10T00:36:53.488Z,99935.51
2018-11-10T00:39:19.612Z,99932.03
2018-11-10T00:41:49.367Z,99917.77
2018-11-10T00:46:39.763Z,99923.19
2018-11-10T00:48:59.391Z,99920.78
2018-11-10T00:51:18.495Z,99916.15
2018-11-10T00:53:40.996Z,99916.41
2018-11-10T00:56:42.206Z,99916.92
2018-11-10T01:02:16.730Z,99911.44
2018-11-10T01:04:36.615Z,99902.22
2018-11-10T01:07:19.726Z,99888.72
2018-11-10T01:09:56.764Z,99871.39
2018-11-10T01:12:17.675Z,99853.12
2018-11-10T01:14:36.912Z,99851.41
2018-11-10T01:16:53.714Z,99850.65
2018-11-10T01:19:13.852Z,99849.34
2018-11-10T01:21:28.502Z,99854.09
2018-11-10T01:26:38.283Z,99865.36
2018-11-10T01:28:39.598Z,99871.84
2018-11-10T01:31:05.570Z,99875.69
2018-11-10T01:33:25.337Z,99873.34
2018-11-10T01:36:05.663Z,99868.41
2018-11-10T01:38:19.165Z,99856.51
2018-11-10T01:40:29.777Z,99854.74
2018-11-10T01:42:39.318Z,99856.05
2018-11-10T01:44:54.566Z,99854.65
2018-11-10T01:46:59.462Z,99838.94
2018-11-10T01:49:07.231Z,99845.36
2018-11-10T01:51:29.943Z,99840.97
2018-11-10T01:53:39.816Z,99839.17
2018-11-10T01:55:49.474Z,99834.88
2018-11-10T01:58:23.877Z,99827.48
2018-11-10T02:00:36.397Z,99818.07
2018-11-10T02:02:47.967Z,99814.66
2018-11-10T02:05:07.174Z,99818.65
2018-11-10T02:07:15.111Z,99823.64
2018-11-10T02:09:28.728Z,99830.19
2018-11-10T02:11:41.419Z,99828.48
2018-11-10T02:14:02.822Z,99830.59
2018-11-10T02:16:13.650Z,99839.20
2018-11-10T02:18:41.664Z,99858.39
2018-11-10T02:21:13.606Z,99853.89
2018-11-10T02:23:28.639Z,99849.81
2018-11-10T02:25:38.880Z,99844.51
2018-11-10T02:27:59.597Z,99841.34
2018-11-10T02:30:11.332Z,99836.89
2018-11-10T02:32:32.705Z,99841.22
2018-11-10T02:34:58.532Z,99839.05
2018-11-10T02:37:09.793Z,99835.98
2018-11-10T02:39:22.086Z,99838.54
2018-11-10T02:41:37.724Z,99843.23
2018-11-10T02:43:51.626Z,99832.29
2018-11-10T02:46:04.218Z,99819.19
2018-11-10T02:48:13.848Z,99819.34
2018-11-10T02:50:21.671Z,99805.91
2018-11-10T02:52:30.719Z,99799.88
2018-11-10T02:54:40.959Z,99793.83
2018-11-10T02:56:49.031Z,99800.89
2018-11-10T02:58:56.730Z,99801.80
2018-11-10T03:01:04.440Z,99803.52
2018-11-10T03:03:12.705Z,99800.83
2018-11-10T03:05:20.398Z,99801.59
2018-11-10T03:07:28.452Z,99802.90
2018-11-10T03:09:36.156Z,99808.53
2018-11-10T03:11:43.866Z,99804.20
2018-11-10T03:13:51.551Z,99795.14
2018-11-10T03:15:59.321Z,99801.74
2018-11-10T03:18:07.017Z,99810.45
2018-11-10T03:20:15.989Z,99817.00
2018-11-10T03:22:23.728Z,99813.08
2018-11-10T03:24:31.454Z,99802.50
2018-11-10T03:26:41.243Z,99785.48
2018-11-10T03:28:49.270Z,99768.55
2018-11-10T03:30:56.945Z,99755.51
2018-11-10T03:33:04.727Z,99750.03
2018-11-10T03:35:12.421Z,99741.78
2018-11-10T03:37:20.139Z,99754.48
2018-11-10T03:39:27.880Z,99755.85
2018-11-10T03:41:35.601Z,99765.88
2018-11-10T03:43:43.291Z,99777.14
2018-11-10T03:45:51.001Z,99784.02
2018-11-10T03:47:58.696Z,99777.78
2018-11-10T03:50:06.737Z,99768.39
2018-11-10T03:52:14.460Z,99772.09
2018-11-10T03:54:22.181Z,99779.89
2018-11-10T03:56:29.906Z,99783.66
2018-11-10T03:58:37.631Z,99777.45
2018-11-10T04:00:45.302Z,99786.86
2018-11-10T04:02:53.002Z,99772.31
2018-11-10T04:05:01.318Z,99772.22
2018-11-10T04:07:09.748Z,99755.58
2018-11-10T04:09:17.444Z,99758.59
2018-11-10T04:11:25.438Z,99753.36
2018-11-10T04:13:34.095Z,99749.49
2018-11-10T04:15:42.831Z,99749.95
2018-11-10T04:17:50.512Z,99750.80
2018-11-10T04:19:58.206Z,99750.73
2018-11-10T04:22:06.077Z,99754.67
2018-11-10T04:24:13.788Z,99749.36
2018-11-10T04:26:21.460Z,99743.66
2018-11-10T04:28:29.250Z,99745.04
2018-11-10T04:30:36.920Z,99759.52
2018-11-10T04:32:44.628Z,99745.95
2018-11-10T04:34:52.308Z,99746.88
2018-11-10T04:37:00.017Z,99725.84
2018-11-10T04:39:09.518Z,99713.20
2018-11-10T04:41:17.203Z,99719.75
2018-11-10T04:43:25.160Z,99739.80
2018-11-10T04:45:32.846Z,99731.02
2018-11-10T04:47:40.795Z,99725.68
2018-11-10T04:49:48.639Z,99734.85
2018-11-10T04:51:56.271Z,99732.17
2018-11-10T04:54:03.988Z,99751.30
2018-11-10T04:56:11.679Z,99723.69
2018-11-10T04:58:19.378Z,99729.02
2018-11-10T05:00:27.100Z,99736.88
2018-11-10T05:02:34.814Z,99717.23
2018-11-10T05:04:42.528Z,99741.67
2018-11-10T05:06:50.795Z,99738.09
2018-11-10T05:08:58.593Z,99730.70
2018-11-10T05:11:07.406Z,99735.94
2018-11-10T05:13:15.111Z,99731.94
2018-11-10T05:15:22.807Z,99736.27
2018-11-10T05:17:30.562Z,99738.42
2018-11-10T05:19:38.289Z,99739.73
2018-11-10T05:21:46.017Z,99743.97
2018-11-10T05:23:53.706Z,99732.10
2018-11-10T05:26:01.489Z,99723.78
2018-11-10T05:28:09.231Z,99728.95
2018-11-10T05:30:18.060Z,99720.64
2018-11-10T05:32:25.790Z,99728.41
2018-11-10T05:34:33.477Z,99728.27
2018-11-10T05:36:41.295Z,99722.56
2018-11-10T05:38:49.017Z,99734.83
2018-11-10T05:40:56.730Z,99742.75
2018-11-10T05:43:04.539Z,99739.61
2018-11-10T05:45:12.206Z,99742.59
2018-11-10T05:47:19.957Z,99738.52
2018-11-10T05:49:28.447Z,99738.06
2018-11-10T05:51:36.876Z,99732.75
2018-11-10T05:53:44.648Z,99732.27
2018-11-10T05:55:52.335Z,99730.95
2018-11-10T05:58:00.101Z,99734.06
2018-11-10T06:00:11.278Z,99727.97
2018-11-10T06:02:18.997Z,99725.02
2018-11-10T06:04:26.766Z,99726.41
2018-11-10T06:06:34.449Z,99727.19
2018-11-10T06:08:41.749Z,99729.64
2018-11-10T06:10:49.448Z,99723.88
2018-11-10T06:12:57.155Z,99725.97
2018-11-10T06:15:04.946Z,99731.44
2018-11-10T06:17:12.646Z,99724.42
2018-11-10T06:19:20.318Z,99731.20
2018-11-10T06:21:28.170Z,99732.45
2018-11-10T06:23:35.886Z,99728.34
2018-11-10T06:25:43.588Z,99720.34
2018-11-10T06:27:51.409Z,99723.42
2018-11-10T06:30:01.564Z,99711.63
2018-11-10T06:32:09.267Z,99707.23
2018-11-10T06:34:17.436Z,99704.22
2018-11-10T06:36:25.156Z,99718.25
2018-11-10T06:38:32.986Z,99718.71
2018-11-10T06:40:40.772Z,99707.30
2018-11-10T06:42:48.391Z,99704.67
2018-11-10T06:44:56.166Z,99701.66
2018-11-10T06:47:03.958Z,99712.61
2018-11-10T06:49:11.700Z,99711.23
2018-11-10T06:51:19.477Z,99726.51
2018-11-10T06:53:27.257Z,99741.33
2018-11-10T06:55:35.145Z,99735.13
2018-11-10T06:57:42.867Z,99740.23
2018-11-10T06:59:53.410Z,99737.61
2018-11-10T07:02:06.515Z,99723.33
2018-11-10T07:04:14.496Z,99723.89
2018-11-10T07:06:23.003Z,99735.36
2018-11-10T07:08:30.714Z,99731.04
2018-11-10T07:10:39.619Z,99719.73
2018-11-10T07:12:47.485Z,99728.41
2018-11-10T07:14:55.181Z,99724.97
2018-11-10T07:17:03.004Z,99730.68
2018-11-10T07:19:10.787Z,99724.58
2018-11-10T07:21:18.516Z,99734.22
2018-11-10T07:23:26.206Z,99736.38
2018-11-10T07:25:35.926Z,99744.15
2018-11-10T07:27:43.878Z,99738.38
2018-11-10T07:29:51.590Z,99742.31
2018-11-10T07:31:59.430Z,99740.47
2018-11-10T07:34:07.164Z,99745.55
2018-11-10T07:36:15.013Z,99748.95
2018-11-10T07:38:25.527Z,99749.81
2018-11-10T07:40:30.925Z,99763.28
2018-11-10T07:42:38.672Z,99764.06
2018-11-10T07:44:46.453Z,99764.85
2018-11-10T07:46:54.152Z,99756.03
2018-11-10T07:49:01.905Z,99750.65
2018-11-10T07:51:09.684Z,99746.32
2018-11-10T07:53:17.416Z,99740.16
2018-11-10T07:55:25.113Z,99738.84
2018-11-10T07:57:32.981Z,99741.01
2018-11-10T07:59:40.709Z,99742.31
2018-11-10T08:01:48.509Z,99743.77
2018-11-10T08:03:56.376Z,99740.00
2018-11-10T08:06:17.430Z,99746.56
2018-11-10T08:08:30.021Z,99747.34
2018-11-10T08:10:39.777Z,99745.80
2018-11-10T08:12:47.595Z,99746.02
2018-11-10T08:15:03.665Z,99744.70
2018-11-10T08:17:20.563Z,99736.27
2018-11-10T08:19:33.475Z,99733.08
2018-11-10T08:21:42.383Z,99734.61
2018-11-10T08:23:50.105Z,99742.17
2018-11-10T08:25:59.864Z,99742.78
2018-11-10T08:28:07.730Z,99733.07
2018-11-10T08:30:17.468Z,99738.61
2018-11-10T08:32:31.453Z,99738.44
2018-11-10T08:34:43.913Z,99742.23
2018-11-10T08:39:08.850Z,99742.77
2018-11-10T08:41:21.344Z,99731.70
2018-11-10T08:43:30.767Z,99733.47
2018-11-10T08:45:43.181Z,99741.34
2018-11-10T08:47:56.259Z,99733.86
2018-11-10T08:50:01.688Z,99736.70
2018-11-10T08:52:12.913Z,99719.95
2018-11-10T08:54:22.506Z,99720.09
2018-11-10T08:56:30.475Z,99715.05
2018-11-10T08:58:41.841Z,99717.04
2018-11-10T09:00:52.184Z,99712.10
2018-11-10T09:03:01.901Z,99726.37
2018-11-10T09:05:11.582Z,99731.08
2018-11-10T09:07:22.456Z,99733.17
2018-11-10T09:09:30.204Z,99735.09
2018-11-10T09:11:38.688Z,99734.83
2018-11-10T09:13:58.528Z,99737.20
2018-11-10T09:16:10.984Z,99731.03
2018-11-10T09:18:18.870Z,99728.61
2018-11-10T09:20:28.451Z,99730.12
2018-11-10T09:22:36.187Z,99722.45
2018-11-10T09:24:44.033Z,99720.05
2018-11-10T09:26:51.842Z,99718.77
2018-11-10T09:28:59.989Z,99725.07
2018-11-10T09:31:13.062Z,99722.49
2018-11-10T09:33:24.747Z,99725.52
2018-11-10T09:35:33.737Z,99726.53
2018-11-10T09:37:50.187Z,99726.65
2018-11-10T09:40:01.296Z,99728.55
2018-11-10T09:42:13.085Z,99724.80
2018-11-10T09:44:36.709Z,99724.26
2018-11-10T09:46:45.910Z,99729.71
2018-11-10T09:48:56.988Z,99729.94
2018-11-10T09:51:02.197Z,99729.75
2018-11-10T09:53:20.228Z,99733.89
2018-11-10T09:55:29.268Z,99727.23
2018-11-10T09:57:37.529Z,99731.45
2018-11-10T09:59:50.780Z,99734.85
2018-11-10T10:01:58.876Z,99743.52
2018-11-10T10:04:06.691Z,99736.36
2018-11-10T10:06:14.645Z,99732.80
2018-11-10T10:08:24.619Z,99729.16
2018-11-10T10:10:32.284Z,99725.88
2018-11-10T10:12:43.474Z,99726.98
2018-11-10T10:14:49.045Z,99716.30
2018-11-10T10:17:07.373Z,99718.36
2018-11-10T10:19:13.922Z,99719.13
2018-11-10T10:21:23.813Z,99721.09
2018-11-10T10:23:34.616Z,99715.66
2018-11-10T10:25:52.725Z,99718.56
2018-11-10T10:28:06.758Z,99716.12
2018-11-10T10:30:19.400Z,99720.84
2018-11-10T10:32:30.163Z,99724.24
2018-11-10T10:34:40.389Z,99726.59
2018-11-10T10:36:50.841Z,99730.81
2018-11-10T10:39:06.395Z,99727.89
2018-11-10T10:41:16.173Z,99722.00
2018-11-10T10:43:25.623Z,99720.48
2018-11-10T10:45:33.280Z,99713.23
2018-11-10T10:47:50.620Z,99710.98
2018-11-10T10:50:05.520Z,99718.80
2018-11-10T10:52:11.187Z,99714.84
2018-11-10T10:54:23.731Z,99707.71
2018-11-10T10:56:38.597Z,99698.03
2018-11-10T10:58:48.397Z,99696.59
2018-11-10T11:01:14.398Z,99693.11
2018-11-10T11:03:40.119Z,99689.54
2018-11-10T11:06:03.520Z,99677.02
2018-11-10T11:08:11.399Z,99674.25
2018-11-10T11:10:19.752Z,99677.91
2018-11-10T11:12:28.942Z,99679.41
2018-11-10T11:14:37.449Z,99670.94
2018-11-10T11:16:42.957Z,99679.11
2018-11-10T11:18:50.786Z,99665.30
2018-11-10T11:20:58.622Z,99679.67
2018-11-10T11:23:06.447Z,99667.72
2018-11-10T11:25:16.859Z,99666.32
2018-11-10T11:27:25.431Z,99672.70
2018-11-10T11:29:33.204Z,99671.67
2018-11-10T11:31:41.876Z,99666.66
2018-11-10T11:33:49.670Z,99676.18
2018-11-10T11:36:10.172Z,99675.13
2018-11-10T11:38:16.412Z,99668.83
2018-11-10T11:40:26.335Z,99676.81
2018-11-10T11:42:48.025Z,99675.03
2018-11-10T11:44:53.888Z,99661.73
2018-11-10T11:47:01.812Z,99672.19
2018-11-10T11:49:17.152Z,99673.88
2018-11-10T11:51:31.941Z,99677.75
2018-11-10T11:53:45.118Z,99673.96
2018-11-10T11:55:51.709Z,99670.64
2018-11-10T11:57:57.731Z,99677.14
2018-11-10T12:00:15.647Z,99674.12
2018-11-10T12:02:23.437Z,99680.03
2018-11-10T12:04:32.328Z,99684.53
2018-11-10T12:06:42.084Z,99681.21
2018-11-10T12:08:51.816Z,99686.69
2018-11-10T12:11:06.152Z,99684.30
2018-11-10T12:13:12.530Z,99676.30
2018-11-10T12:15:26.489Z,99680.98
2018-11-10T12:17:32.182Z,99677.52
2018-11-10T12:19:42.923Z,99671.19
2018-11-10T12:21:51.087Z,99665.34
2018-11-10T12:23:59.938Z,99669.39
2018-11-10T12:26:08.341Z,99665.91
2018-11-10T12:28:16.106Z,99672.50
2018-11-10T12:30:23.939Z,99667.79
2018-11-10T12:32:33.993Z,99663.96
2018-11-10T12:34:42.017Z,99668.77
2018-11-10T12:36:49.744Z,99662.73
2018-11-10T12:38:57.758Z,99660.09
2018-11-10T12:41:05.490Z,99660.09
2018-11-10T12:43:13.369Z,99656.52
2018-11-10T12:45:21.274Z,99657.84
2018-11-10T12:47:29.276Z,99661.70
2018-11-10T12:49:38.817Z,99661.32
2018-11-10T12:51:49.112Z,99664.90
2018-11-10T12:53:56.824Z,99657.45
2018-11-10T12:56:05.768Z,99654.06
2018-11-10T12:58:14.463Z,99649.38
2018-11-10T13:00:23.200Z,99645.52
2018-11-10T13:02:31.311Z,99638.17
2018-11-10T13:04:40.022Z,99646.67
2018-11-10T13:06:47.773Z,99622.78
2018-11-10T13:08:55.632Z,99637.94
2018-11-10T13:11:03.543Z,99640.31
2018-11-10T13:13:11.261Z,99630.62
2018-11-10T13:15:19.044Z,99627.51
2018-11-10T13:17:28.187Z,99623.09
2018-11-10T13:19:34.580Z,99618.53
2018-11-10T13:21:40.269Z,99620.14
2018-11-10T13:23:48.035Z,99626.61
2018-11-10T13:25:55.886Z,99628.30
2018-11-10T13:28:03.622Z,99630.26
2018-11-10T13:30:13.898Z,99623.95
2018-11-10T13:32:22.586Z,99636.92
2018-11-10T13:34:30.474Z,99622.23
2018-11-10T13:36:39.524Z,99634.48
2018-11-10T13:38:47.294Z,99629.08
2018-11-10T13:40:55.199Z,99626.81
2018-11-10T13:43:02.980Z,99627.57
2018-11-10T13:45:14.295Z,99632.72
2018-11-10T13:47:20.721Z,99624.34
2018-11-10T13:49:25.716Z,99634.70
2018-11-10T13:51:32.035Z,99630.16
2018-11-10T13:53:37.525Z,99630.16
2018-11-10T13:55:45.465Z,99626.57
2018-11-10T13:58:07.115Z,99622.14
2018-11-10T14:00:17.596Z,99629.50
2018-11-10T14:02:25.553Z,99629.02
2018-11-10T14:04:33.495Z,99627.95
2018-11-10T14:06:43.097Z,99626.07
2018-11-10T14:08:57.856Z,99625.03
2018-11-10T14:11:07.434Z,99624.00
2018-11-10T14:13:16.034Z,99609.39
2018-11-10T14:15:23.862Z,99632.17
2018-11-10T14:17:31.638Z,99627.48
2018-11-10T14:19:39.410Z,99628.43
2018-11-10T14:21:47.506Z,99641.15
2018-11-10T14:23:55.941Z,99642.09
2018-11-10T14:26:01.134Z,99643.88
2018-11-10T14:28:08.979Z,99634.65
2018-11-10T14:30:17.874Z,99638.52
2018-11-10T14:32:26.727Z,99641.06
2018-11-10T14:34:34.539Z,99640.46
2018-11-10T14:36:42.309Z,99643.48
2018-11-10T14:38:50.057Z,99653.66
2018-11-10T14:40:57.840Z,99640.55
2018-11-10T14:43:05.690Z,99645.83
2018-11-10T14:45:15.619Z,99641.31
2018-11-10T14:47:21.987Z,99639.52
2018-11-10T14:49:26.878Z,99646.97
2018-11-10T14:51:34.673Z,99646.80
2018-11-10T14:53:42.442Z,99649.54
2018-11-10T14:55:50.972Z,99646.62
2018-11-10T14:57:58.728Z,99652.45
2018-11-10T15:00:08.949Z,99649.53
2018-11-10T15:02:16.660Z,99645.70
2018-11-10T15:04:24.817Z,99654.09
2018-11-10T15:06:32.591Z,99657.07
2018-11-10T15:08:40.481Z,99672.90
2018-11-10T15:10:49.923Z,99665.11
2018-11-10T15:12:57.700Z,99658.98
2018-11-10T15:15:06.336Z,99666.90
2018-11-10T15:17:16.444Z,99670.10
2018-11-10T15:19:24.227Z,99667.59
2018-11-10T15:21:32.088Z,99673.67
2018-11-10T15:23:39.810Z,99675.59
2018-11-10T15:25:47.692Z,99667.77
2018-11-10T15:27:55.393Z,99670.88
2018-11-10T15:30:03.151Z,99667.39
2018-11-10T15:32:10.909Z,99667.86
2018-11-10T15:34:20.347Z,99663.06
2018-11-10T15:36:30.698Z,99671.73
2018-11-10T15:38:38.444Z,99671.73
2018-11-10T15:40:44.771Z,99668.24
2018-11-10T15:42:49.785Z,99668.84
2018-11-10T15:44:58.098Z,99664.13
2018-11-10T15:47:06.183Z,99661.58
2018-11-10T15:49:15.118Z,99658.56
2018-11-10T15:51:23.606Z,99653.88
2018-11-10T15:53:33.192Z,99655.58
2018-11-10T15:55:43.376Z,99652.09
2018-11-10T15:57:51.174Z,99641.55
2018-11-10T16:00:07.997Z,99645.59
2018-11-10T16:02:15.718Z,99639.09
2018-11-10T16:04:37.261Z,99628.37
2018-11-10T16:06:42.915Z,99626.80
2018-11-10T16:08:53.077Z,99623.66
2018-11-10T16:11:00.818Z,99623.41
2018-11-10T16:13:10.300Z,99632.64
2018-11-10T16:15:19.575Z,99626.89
2018-11-10T16:17:27.375Z,99630.38
2018-11-10T16:19:35.250Z,99635.28
2018-11-10T16:21:43.699Z,99632.35
2018-11-10T16:23:52.244Z,99629.67
2018-11-10T16:26:00.030Z,99637.30
2018-11-10T16:28:09.901Z,99637.22
2018-11-10T16:30:19.587Z,99636.59
2018-11-10T16:32:27.443Z,99639.31
2018-11-10T16:34:38.763Z,99645.14
2018-11-10T16:36:46.561Z,99645.05
2018-11-10T16:38:54.363Z,99647.22
2018-11-10T16:41:02.158Z,99646.46
2018-11-10T16:43:09.928Z,99651.01
2018-11-10T16:45:19.227Z,99652.03
2018-11-10T16:47:26.097Z,99648.55
2018-11-10T16:49:32.840Z,99642.34
2018-11-10T16:51:40.684Z,99644.59
2018-11-10T16:53:48.515Z,99646.38
2018-11-10T16:55:56.232Z,99646.03
2018-11-10T16:58:04.105Z,99644.25
2018-11-10T17:00:16.699Z,99641.49
2018-11-10T17:02:24.631Z,99639.80
2018-11-10T17:04:32.709Z,99638.98
2018-11-10T17:06:40.492Z,99637.54
2018-11-10T17:08:48.439Z,99638.39
2018-11-10T17:10:56.381Z,99639.61
2018-11-10T17:13:04.132Z,99642.16
2018-11-10T17:15:12.355Z,99637.83
2018-11-10T17:17:20.215Z,99634.34
2018-11-10T17:19:28.021Z,99630.02
2018-11-10T17:21:38.061Z,99628.44
2018-11-10T17:23:45.745Z,99636.91
2018-11-10T17:25:53.530Z,99639.25
2018-11-10T17:28:01.467Z,99637.46
2018-11-10T17:30:16.336Z,99639.16
2018-11-10T17:32:25.777Z,99633.04
2018-11-10T17:34:33.595Z,99636.05
2018-11-10T17:36:41.324Z,99640.56
2018-11-10T17:38:50.037Z,99638.98
2018-11-10T17:40:57.686Z,99631.30
2018-11-10T17:43:05.625Z,99625.52
2018-11-10T17:45:14.610Z,99613.78
2018-11-10T17:47:22.953Z,99614.63
2018-11-10T17:49:30.724Z,99613.58
2018-11-10T17:51:38.530Z,99608.69
2018-11-10T17:53:46.457Z,99597.05
2018-11-10T17:55:54.246Z,99591.02
2018-11-10T17:58:02.127Z,99591.48
2018-11-10T18:00:10.189Z,99598.20
2018-11-10T18:02:18.132Z,99595.27
2018-11-10T18:04:25.916Z,99601.77
2018-11-10T18:06:33.745Z,99606.83
2018-11-10T18:08:41.577Z,99609.28
2018-11-10T18:10:51.688Z,99604.74
2018-11-10T18:12:59.817Z,99609.45
2018-11-10T18:15:08.974Z,99614.89
2018-11-10T18:17:16.718Z,99620.33
2018-11-10T18:19:24.649Z,99623.63
2018-11-10T18:21:32.430Z,99630.09
2018-11-10T18:23:40.229Z,99626.62
2018-11-10T18:25:47.965Z,99626.53
2018-11-10T18:27:55.696Z,99633.50
2018-11-10T18:30:03.457Z,99639.14
2018-11-10T18:32:11.253Z,99625.88
2018-11-10T18:34:19.150Z,99620.10
2018-11-10T18:36:26.993Z,99616.53
2018-11-10T18:38:34.754Z,99615.33
2018-11-10T18:40:42.570Z,99617.12
2018-11-10T18:42:50.344Z,99618.44
2018-11-10T18:44:58.109Z,99623.50
2018-11-10T18:47:04.616Z,99625.75
2018-11-10T18:49:09.503Z,99631.88
2018-11-10T18:51:17.565Z,99638.38
2018-11-10T18:53:25.387Z,99635.65
2018-11-10T18:55:33.290Z,99620.30
2018-11-10T18:57:42.517Z,99613.33
2018-11-10T18:59:49.971Z,99620.30
2018-11-10T19:01:57.764Z,99623.50
2018-11-10T19:04:05.752Z,99619.08
2018-11-10T19:06:13.434Z,99618.98
2018-11-10T19:08:21.301Z,99611.80
2018-11-10T19:10:29.119Z,99607.38
2018-11-10T19:12:36.980Z,99612.56
2018-11-10T19:14:44.977Z,99604.65
2018-11-10T19:16:52.781Z,99602.27
2018-11-10T19:19:00.592Z,99604.05
2018-11-10T19:21:08.705Z,99611.97
2018-11-10T19:23:16.513Z,99609.83
2018-11-10T19:25:24.270Z,99617.61
2018-11-10T19:27:32.057Z,99614.98
2018-11-10T19:29:39.817Z,99621.01
2018-11-10T19:31:47.655Z,99623.27
2018-11-10T19:33:55.483Z,99632.58
2018-11-10T19:36:03.324Z,99637.39
2018-11-10T19:38:13.216Z,99655.67
2018-11-10T19:40:22.925Z,99664.27
2018-11-10T19:42:35.731Z,99680.09
2018-11-10T19:44:50.173Z,99688.77
2018-11-10T19:47:00.074Z,99694.72
2018-11-10T19:49:08.167Z,99695.73
2018-11-10T19:51:19.381Z,99692.16
2018-11-10T19:53:23.452Z,99688.97
2018-11-10T19:55:32.140Z,99674.27
2018-11-10T19:57:41.604Z,99666.15
2018-11-10T19:59:54.706Z,99663.05
2018-11-10T20:02:02.434Z,99675.59
2018-11-10T20:04:10.570Z,99679.28
2018-11-10T20:06:18.364Z,99683.88
2018-11-10T20:08:26.159Z,99684.47
2018-11-10T20:10:34.065Z,99685.88
2018-11-10T20:12:42.980Z,99681.63
2018-11-10T20:14:50.869Z,99676.94
2018-11-10T20:16:58.683Z,99670.73
2018-11-10T20:19:06.553Z,99663.65
2018-11-10T20:21:14.348Z,99660.20
2018-11-10T20:23:22.211Z,99658.77
2018-11-10T20:25:30.739Z,99659.05
2018-11-10T20:27:38.579Z,99646.81
2018-11-10T20:29:46.392Z,99643.71
2018-11-10T20:31:54.313Z,99635.05
2018-11-10T20:34:02.099Z,99635.05
2018-11-10T20:36:09.953Z,99635.05
2018-11-10T20:38:19.622Z,99632.41
2018-11-10T20:40:27.433Z,99627.43
2018-11-10T20:42:35.218Z,99632.88
2018-11-10T20:44:43.111Z,99631.08
2018-11-10T20:46:51.138Z,99626.92
2018-11-10T20:48:59.011Z,99629.00
2018-11-10T20:51:06.990Z,99628.31
2018-11-10T20:53:14.774Z,99624.83
2018-11-10T20:55:22.660Z,99624.10
2018-11-10T20:57:30.637Z,99626.73
2018-11-10T20:59:42.477Z,99632.02
2018-11-10T21:01:58.316Z,99637.46
2018-11-10T21:04:08.139Z,99635.41
2018-11-10T21:06:17.893Z,99635.41
2018-11-10T21:08:31.105Z,99633.04
2018-11-10T21:10:42.094Z,99636.14
2018-11-10T21:12:52.607Z,99632.56
2018-11-10T21:15:00.384Z,99625.89
2018-11-10T21:17:08.534Z,99623.52
2018-11-10T21:19:16.903Z,99624.36
2018-11-10T21:21:24.877Z,99630.48
2018-11-10T21:23:32.716Z,99634.81
2018-11-10T21:25:40.493Z,99635.57
2018-11-10T21:27:48.848Z,99640.25
2018-11-10T21:29:56.664Z,99635.83
2018-11-10T21:32:04.408Z,99646.28
2018-11-10T21:34:12.224Z,99642.33
2018-11-10T21:36:20.070Z,99635.27
2018-11-10T21:38:27.790Z,99641.01
2018-11-10T21:40:35.578Z,99638.55
2018-11-10T21:42:43.739Z,99634.81
2018-11-10T21:44:51.515Z,99634.05
2018-11-10T21:46:58.009Z,99644.25
2018-11-10T21:49:03.094Z,99642.08
2018-11-10T21:51:10.834Z,99643.87
2018-11-10T21:53:27.467Z,99643.02
2018-11-10T21:55:35.751Z,99647.61
2018-11-10T21:57:44.270Z,99652.41
2018-11-10T21:59:52.250Z,99645.06
2018-11-10T22:02:00.044Z,99644.51
2018-11-10T22:04:08.040Z,99649.22
2018-11-10T22:06:18.889Z,99639.78
2018-11-10T22:08:26.548Z,99645.34
2018-11-10T22:10:34.374Z,99640.80
2018-11-10T22:12:44.832Z,99644.75
2018-11-10T22:14:54.657Z,99651.34
2018-11-10T22:17:02.446Z,99652.66
2018-11-10T22:19:14.809Z,99653.98
2018-11-10T22:21:24.916Z,99658.78
2018-11-10T22:23:46.541Z,99658.31
2018-11-10T22:25:55.978Z,99658.87
2018-11-10T22:28:34.460Z,99658.53
2018-11-10T22:30:49.594Z,99663.89
2018-11-10T22:33:13.519Z,99653.81
2018-11-10T22:35:21.796Z,99656.06
2018-11-10T22:37:54.990Z,99657.59
2018-11-10T22:40:06.206Z,99655.43
2018-11-10T22:43:03.140Z,99667.29
2018-11-10T22:45:13.252Z,99662.95
2018-11-10T22:47:21.324Z,99670.78
2018-11-10T22:49:29.110Z,99685.02
2018-11-10T22:51:36.924Z,99692.63
2018-11-10T22:53:44.756Z,99691.41
2018-11-10T22:55:52.602Z,99691.23
2018-11-10T22:58:00.450Z,99702.23
2018-11-10T23:00:22.918Z,99699.34
2018-11-10T23:02:30.703Z,99703.77
2018-11-10T23:04:38.463Z,99699.42
2018-11-10T23:06:46.242Z,99697.94
2018-11-10T23:08:54.031Z,99702.06
2018-11-10T23:11:01.856Z,99703.11
2018-11-10T23:13:09.692Z,99703.58
2018-11-10T23:15:17.460Z,99701.03
2018-11-10T23:17:25.178Z,99709.61
2018-11-10T23:19:32.919Z,99712.52
2018-11-10T23:21:40.742Z,99717.70
2018-11-10T23:23:48.513Z,99717.96
2018-11-10T23:25:56.246Z,99721.73
2018-11-10T23:28:04.038Z,99730.38
2018-11-10T23:30:18.255Z,99720.98
2018-11-10T23:32:26.095Z,99720.89
2018-11-10T23:34:33.914Z,99723.41
2018-11-10T23:36:42.553Z,99714.56
2018-11-10T23:38:50.300Z,99713.25
2018-11-10T23:40:58.065Z,99710.41
2018-11-10T23:43:05.831Z,99705.14
2018-11-10T23:45:14.172Z,99712.02
2018-11-10T23:47:23.609Z,99706.74
2018-11-10T23:49:28.447Z,99707.50
2018-11-10T23:51:36.947Z,99700.33
2018-11-10T23:53:44.739Z,99702.67
2018-11-10T23:55:52.500Z,99693.73
2018-11-10T23:58:00.219Z,99692.59
